sensor_id;sensor_type;location;lat;lon;timestamp;pressure;altitude;pressure_sealevel;temperature;humidity
8637;BME280;4356;49.068;8.658;2023-05-31T00:02:19;100277.22;;;25.12;32.68
8637;BME280;4356;49.068;8.658;2023-05-31T00:04:45;100270.28;;;25.10;32.72
8637;BME280;4356;49.068;8.658;2023-05-31T00:07:10;100276.63;;;25.10;32.71
8637;BME280;4356;49.068;8.658;2023-05-31T00:09:36;100268.63;;;25.09;32.81
8637;BME280;4356;49.068;8.658;2023-05-31T00:12:01;100250.41;;;25.03;32.76
8637;BME280;4356;49.068;8.658;2023-05-31T00:14:27;100270.22;;;25.05;32.61
8637;BME280;4356;49.068;8.658;2023-05-31T00:16:52;100258.66;;;25.03;32.76
8637;BME280;4356;49.068;8.658;2023-05-31T00:19:18;100262.50;;;25.02;32.82
8637;BME280;4356;49.068;8.658;2023-05-31T00:21:45;100270.75;;;25.02;33.01
8637;BME280;4356;49.068;8.658;2023-05-31T00:24:15;100258.03;;;24.96;32.88
8637;BME280;4356;49.068;8.658;2023-05-31T00:26:40;100262.41;;;24.97;32.84
8637;BME280;4356;49.068;8.658;2023-05-31T00:29:06;100264.34;;;24.96;32.87
8637;BME280;4356;49.068;8.658;2023-05-31T00:31:31;100258.53;;;24.93;32.91
8637;BME280;4356;49.068;8.658;2023-05-31T00:33:57;100265.44;;;24.95;32.66
8637;BME280;4356;49.068;8.658;2023-05-31T00:36:23;100252.47;;;24.91;32.89
8637;BME280;4356;49.068;8.658;2023-05-31T00:38:49;100262.34;;;24.92;32.83
8637;BME280;4356;49.068;8.658;2023-05-31T00:41:15;100265.94;;;24.92;32.96
8637;BME280;4356;49.068;8.658;2023-05-31T00:43:41;100261.78;;;24.90;32.88
8637;BME280;4356;49.068;8.658;2023-05-31T00:46:10;100259.03;;;24.90;32.94
8637;BME280;4356;49.068;8.658;2023-05-31T00:48:36;100268.63;;;24.87;33.04
8637;BME280;4356;49.068;8.658;2023-05-31T00:51:05;100263.38;;;24.86;32.83
8637;BME280;4356;49.068;8.658;2023-05-31T00:53:31;100257.81;;;24.81;33.01
8637;BME280;4356;49.068;8.658;2023-05-31T00:55:58;100261.41;;;24.81;32.89
8637;BME280;4356;49.068;8.658;2023-05-31T00:58:26;100265.81;;;24.82;33.02
8637;BME280;4356;49.068;8.658;2023-05-31T01:00:54;100266.91;;;24.81;32.97
8637;BME280;4356;49.068;8.658;2023-05-31T01:03:20;100253.34;;;24.75;33.03
8637;BME280;4356;49.068;8.658;2023-05-31T01:05:46;100259.66;;;24.75;33.16
8637;BME280;4356;49.068;8.658;2023-05-31T01:08:12;100263.84;;;24.78;33.08
8637;BME280;4356;49.068;8.658;2023-05-31T01:10:40;100265.41;;;24.74;33.17
8637;BME280;4356;49.068;8.658;2023-05-31T01:16:10;100265.69;;;24.72;32.94
8637;BME280;4356;49.068;8.658;2023-05-31T01:18:58;100265.94;;;24.71;32.91
8637;BME280;4356;49.068;8.658;2023-05-31T01:21:43;100247.66;;;24.65;33.13
8637;BME280;4356;49.068;8.658;2023-05-31T01:26:46;100266.66;;;24.66;33.00
8637;BME280;4356;49.068;8.658;2023-05-31T01:29:19;100272.16;;;24.66;33.18
8637;BME280;4356;49.068;8.658;2023-05-31T01:31:47;100268.00;;;24.64;33.20
8637;BME280;4356;49.068;8.658;2023-05-31T01:34:14;100258.59;;;24.60;33.36
8637;BME280;4356;49.068;8.658;2023-05-31T01:36:40;100267.69;;;24.60;33.53
8637;BME280;4356;49.068;8.658;2023-05-31T01:39:06;100271.50;;;24.59;33.40
8637;BME280;4356;49.068;8.658;2023-05-31T01:41:36;100264.34;;;24.58;33.40
8637;BME280;4356;49.068;8.658;2023-05-31T01:44:04;100272.03;;;24.56;33.23
8637;BME280;4356;49.068;8.658;2023-05-31T01:46:30;100273.09;;;24.55;33.30
8637;BME280;4356;49.068;8.658;2023-05-31T01:48:56;100272.28;;;24.55;33.32
8637;BME280;4356;49.068;8.658;2023-05-31T01:51:23;100271.69;;;24.53;33.28
8637;BME280;4356;49.068;8.658;2023-05-31T01:53:50;100267.78;;;24.48;33.16
8637;BME280;4356;49.068;8.658;2023-05-31T01:56:17;100271.94;;;24.51;33.30
8637;BME280;4356;49.068;8.658;2023-05-31T01:58:45;100271.13;;;24.51;33.18
8637;BME280;4356;49.068;8.658;2023-05-31T02:01:14;100266.69;;;24.49;33.40
8637;BME280;4356;49.068;8.658;2023-05-31T02:03:42;100266.34;;;24.46;33.18
8637;BME280;4356;49.068;8.658;2023-05-31T02:06:08;100280.69;;;24.48;33.34
8637;BME280;4356;49.068;8.658;2023-05-31T02:08:33;100266.88;;;24.43;33.33
8637;BME280;4356;49.068;8.658;2023-05-31T02:10:59;100266.63;;;24.44;33.30
8637;BME280;4356;49.068;8.658;2023-05-31T02:13:27;100266.63;;;24.44;33.24
8637;BME280;4356;49.068;8.658;2023-05-31T02:15:56;100259.94;;;24.40;33.16
8637;BME280;4356;49.068;8.658;2023-05-31T02:18:23;100265.72;;;24.39;33.11
8637;BME280;4356;49.068;8.658;2023-05-31T02:20:52;100267.38;;;24.40;33.16
8637;BME280;4356;49.068;8.658;2023-05-31T02:23:21;100255.22;;;24.36;33.16
8637;BME280;4356;49.068;8.658;2023-05-31T02:25:47;100264.53;;;24.35;32.91
8637;BME280;4356;49.068;8.658;2023-05-31T02:28:14;100265.63;;;24.34;33.16
8637;BME280;4356;49.068;8.658;2023-05-31T02:30:40;100265.63;;;24.34;33.26
8637;BME280;4356;49.068;8.658;2023-05-31T02:33:06;100250.16;;;24.28;33.12
8637;BME280;4356;49.068;8.658;2023-05-31T02:35:32;100256.75;;;24.27;33.09
8637;BME280;4356;49.068;8.658;2023-05-31T02:37:59;100266.16;;;24.31;33.13
8637;BME280;4356;49.068;8.658;2023-05-31T02:40:24;100264.13;;;24.26;33.34
8637;BME280;4356;49.068;8.658;2023-05-31T02:42:50;100264.13;;;24.26;33.38
8637;BME280;4356;49.068;8.658;2023-05-31T02:45:16;100265.25;;;24.25;33.16
8637;BME280;4356;49.068;8.658;2023-05-31T02:47:42;100263.81;;;24.23;33.45
8637;BME280;4356;49.068;8.658;2023-05-31T02:50:09;100263.22;;;24.21;33.12
8637;BME280;4356;49.068;8.658;2023-05-31T02:52:37;100268.72;;;24.21;33.48
8637;BME280;4356;49.068;8.658;2023-05-31T02:55:04;100270.66;;;24.20;33.33
8637;BME280;4356;49.068;8.658;2023-05-31T02:57:30;100264.59;;;24.18;33.42
8637;BME280;4356;49.068;8.658;2023-05-31T02:59:57;100267.91;;;24.20;33.46
8637;BME280;4356;49.068;8.658;2023-05-31T03:02:23;100262.91;;;24.17;33.61
8637;BME280;4356;49.068;8.658;2023-05-31T03:04:49;100258.97;;;24.13;33.68
8637;BME280;4356;49.068;8.658;2023-05-31T03:07:15;100271.13;;;24.17;33.54
8637;BME280;4356;49.068;8.658;2023-05-31T03:09:41;100265.56;;;24.12;33.65
8637;BME280;4356;49.068;8.658;2023-05-31T03:12:07;100271.06;;;24.12;33.64
8637;BME280;4356;49.068;8.658;2023-05-31T03:14:33;100271.06;;;24.12;33.71
8637;BME280;4356;49.068;8.658;2023-05-31T03:16:58;100274.91;;;24.11;33.70
8637;BME280;4356;49.068;8.658;2023-05-31T03:19:24;100270.47;;;24.10;33.71
8637;BME280;4356;49.068;8.658;2023-05-31T03:21:49;100279.81;;;24.09;33.74
8637;BME280;4356;49.068;8.658;2023-05-31T03:24:15;100273.16;;;24.05;33.86
8637;BME280;4356;49.068;8.658;2023-05-31T03:26:40;100285.53;;;24.08;33.71
8637;BME280;4356;49.068;8.658;2023-05-31T03:29:06;100276.41;;;24.02;33.74
8637;BME280;4356;49.068;8.658;2023-05-31T03:31:32;100276.41;;;24.02;33.71
8637;BME280;4356;49.068;8.658;2023-05-31T03:33:58;100286.88;;;24.05;33.76
8637;BME280;4356;49.068;8.658;2023-05-31T03:36:24;100290.13;;;24.02;33.76
8637;BME280;4356;49.068;8.658;2023-05-31T03:38:49;100296.19;;;24.04;33.75
8637;BME280;4356;49.068;8.658;2023-05-31T03:41:15;100293.94;;;24.01;33.83
8637;BME280;4356;49.068;8.658;2023-05-31T03:43:41;100296.91;;;24.00;33.88
8637;BME280;4356;49.068;8.658;2023-05-31T03:46:06;100298.81;;;23.99;34.21
8637;BME280;4356;49.068;8.658;2023-05-31T03:48:32;100301.56;;;23.99;34.10
8637;BME280;4356;49.068;8.658;2023-05-31T03:50:57;100291.09;;;23.96;34.17
8637;BME280;4356;49.068;8.658;2023-05-31T03:53:23;100289.66;;;23.94;33.98
8637;BME280;4356;49.068;8.658;2023-05-31T03:55:48;100304.81;;;23.96;34.17
8637;BME280;4356;49.068;8.658;2023-05-31T03:58:14;100300.63;;;23.94;33.97
8637;BME280;4356;49.068;8.658;2023-05-31T04:00:40;100303.38;;;23.94;33.97
8637;BME280;4356;49.068;8.658;2023-05-31T04:03:07;100301.47;;;23.94;33.92
8637;BME280;4356;49.068;8.658;2023-05-31T04:05:33;100299.47;;;23.90;34.10
8637;BME280;4356;49.068;8.658;2023-05-31T04:07:58;100305.19;;;23.88;34.05
8637;BME280;4356;49.068;8.658;2023-05-31T04:10:26;100307.47;;;23.91;34.03
8637;BME280;4356;49.068;8.658;2023-05-31T04:12:51;100298.06;;;23.87;34.14
8637;BME280;4356;49.068;8.658;2023-05-31T04:15:17;100304.13;;;23.89;34.06
8637;BME280;4356;49.068;8.658;2023-05-31T04:17:42;100301.06;;;23.86;34.16
8637;BME280;4356;49.068;8.658;2023-05-31T04:20:08;100303.47;;;23.82;34.08
8637;BME280;4356;49.068;8.658;2023-05-31T04:22:34;100312.28;;;23.84;34.21
8637;BME280;4356;49.068;8.658;2023-05-31T04:25:01;100307.88;;;23.83;34.27
8637;BME280;4356;49.068;8.658;2023-05-31T04:27:27;100306.44;;;23.81;34.46
8637;BME280;4356;49.068;8.658;2023-05-31T04:29:53;100311.19;;;23.85;34.25
8637;BME280;4356;49.068;8.658;2023-05-31T04:32:22;100311.69;;;23.82;34.10
8637;BME280;4356;49.068;8.658;2023-05-31T04:34:48;100310.59;;;23.83;34.39
8637;BME280;4356;49.068;8.658;2023-05-31T04:37:14;100314.44;;;23.82;34.34
8637;BME280;4356;49.068;8.658;2023-05-31T04:39:39;100306.69;;;23.79;34.33
8637;BME280;4356;49.068;8.658;2023-05-31T04:42:05;100309.44;;;23.79;34.05
8637;BME280;4356;49.068;8.658;2023-05-31T04:44:31;100319.09;;;23.82;34.15
8637;BME280;4356;49.068;8.658;2023-05-31T04:46:57;100318.50;;;23.80;34.32
8637;BME280;4356;49.068;8.658;2023-05-31T04:49:22;100308.25;;;23.75;34.41
8637;BME280;4356;49.068;8.658;2023-05-31T04:51:49;100312.69;;;23.76;34.22
8637;BME280;4356;49.068;8.658;2023-05-31T04:54:15;100312.44;;;23.78;34.26
8637;BME280;4356;49.068;8.658;2023-05-31T04:56:40;100308.03;;;23.77;34.20
8637;BME280;4356;49.068;8.658;2023-05-31T04:59:06;100313.75;;;23.75;34.24
8637;BME280;4356;49.068;8.658;2023-05-31T05:01:31;100316.25;;;23.77;34.37
8637;BME280;4356;49.068;8.658;2023-05-31T05:03:57;100320.91;;;23.76;34.44
8637;BME280;4356;49.068;8.658;2023-05-31T05:06:23;100322.56;;;23.77;34.36
8637;BME280;4356;49.068;8.658;2023-05-31T05:08:49;100323.66;;;23.76;34.37
8637;BME280;4356;49.068;8.658;2023-05-31T05:11:15;100315.09;;;23.73;34.53
8637;BME280;4356;49.068;8.658;2023-05-31T05:13:41;100328.63;;;23.79;34.37
8637;BME280;4356;49.068;8.658;2023-05-31T05:16:06;100326.16;;;23.78;34.33
8637;BME280;4356;49.068;8.658;2023-05-31T05:18:32;100337.97;;;23.78;34.36
8637;BME280;4356;49.068;8.658;2023-05-31T05:20:57;100329.75;;;23.78;34.42
8637;BME280;4356;49.068;8.658;2023-05-31T05:23:24;100328.06;;;23.77;34.42
8637;BME280;4356;49.068;8.658;2023-05-31T05:25:49;100332.22;;;23.80;34.45
8637;BME280;4356;49.068;8.658;2023-05-31T05:28:15;100325.09;;;23.79;34.16
8637;BME280;4356;49.068;8.658;2023-05-31T05:30:41;100321.97;;;23.75;34.30
8637;BME280;4356;49.068;8.658;2023-05-31T05:33:06;100338.56;;;23.80;34.09
8637;BME280;4356;49.068;8.658;2023-05-31T05:35:32;100326.75;;;23.80;34.32
8637;BME280;4356;49.068;8.658;2023-05-31T05:37:58;100324.25;;;23.78;34.02
8637;BME280;4356;49.068;8.658;2023-05-31T05:40:25;100332.56;;;23.83;34.30
8637;BME280;4356;49.068;8.658;2023-05-31T05:42:53;100330.78;;;23.77;34.25
8637;BME280;4356;49.068;8.658;2023-05-31T05:45:18;100339.38;;;23.81;34.25
8637;BME280;4356;49.068;8.658;2023-05-31T05:47:44;100335.31;;;23.83;34.11
8637;BME280;4356;49.068;8.658;2023-05-31T05:50:11;100341.41;;;23.85;34.22
8637;BME280;4356;49.068;8.658;2023-05-31T05:52:37;100352.38;;;23.85;34.25
8637;BME280;4356;49.068;8.658;2023-05-31T05:55:04;100343.88;;;23.87;34.27
8637;BME280;4356;49.068;8.658;2023-05-31T05:57:29;100343.88;;;23.87;34.20
8637;BME280;4356;49.068;8.658;2023-05-31T05:59:56;100346.38;;;23.88;34.46
8637;BME280;4356;49.068;8.658;2023-05-31T06:02:22;100348.06;;;23.89;34.16
8637;BME280;4356;49.068;8.658;2023-05-31T06:04:47;100338.97;;;23.89;34.34
8637;BME280;4356;49.068;8.658;2023-05-31T06:07:15;100342.91;;;23.93;34.42
8637;BME280;4356;49.068;8.658;2023-05-31T06:09:41;100335.50;;;23.93;34.37
8637;BME280;4356;49.068;8.658;2023-05-31T06:12:07;100337.16;;;23.94;34.41
8637;BME280;4356;49.068;8.658;2023-05-31T06:14:36;100321.66;;;23.88;34.41
8637;BME280;4356;49.068;8.658;2023-05-31T06:17:01;100337.25;;;23.99;34.38
8637;BME280;4356;49.068;8.658;2023-05-31T06:19:27;100335.97;;;24.02;34.35
8637;BME280;4356;49.068;8.658;2023-05-31T06:21:52;100330.47;;;24.02;34.49
8637;BME280;4356;49.068;8.658;2023-05-31T06:24:21;100334.41;;;24.06;34.31
8637;BME280;4356;49.068;8.658;2023-05-31T06:26:47;100334.16;;;24.07;34.31
8637;BME280;4356;49.068;8.658;2023-05-31T06:29:12;100336.63;;;24.09;34.07
8637;BME280;4356;49.068;8.658;2023-05-31T06:31:38;100336.97;;;24.12;34.27
8637;BME280;4356;49.068;8.658;2023-05-31T06:34:04;100327.63;;;24.13;34.10
8637;BME280;4356;49.068;8.658;2023-05-31T06:36:30;100334.31;;;24.17;33.95
8637;BME280;4356;49.068;8.658;2023-05-31T06:38:57;100326.56;;;24.14;34.14
8637;BME280;4356;49.068;8.658;2023-05-31T06:41:22;100333.56;;;24.22;33.95
8637;BME280;4356;49.068;8.658;2023-05-31T06:43:48;100330.56;;;24.23;33.79
8637;BME280;4356;49.068;8.658;2023-05-31T06:46:13;100335.22;;;24.23;33.99
8637;BME280;4356;49.068;8.658;2023-05-31T06:48:39;100332.22;;;24.24;33.94
8637;BME280;4356;49.068;8.658;2023-05-31T06:51:05;100339.22;;;24.32;33.85
8637;BME280;4356;49.068;8.658;2023-05-31T06:53:31;100343.66;;;24.33;33.77
8637;BME280;4356;49.068;8.658;2023-05-31T06:55:56;100319.59;;;24.23;33.86
8637;BME280;4356;49.068;8.658;2023-05-31T06:58:22;100337.56;;;24.31;33.61
8637;BME280;4356;49.068;8.658;2023-05-31T07:00:48;100338.38;;;24.31;33.72
8637;BME280;4356;49.068;8.658;2023-05-31T07:03:13;100344.19;;;24.35;33.40
8637;BME280;4356;49.068;8.658;2023-05-31T07:05:39;100338.97;;;24.33;33.31
8637;BME280;4356;49.068;8.658;2023-05-31T07:08:07;100345.31;;;24.34;33.36
8637;BME280;4356;49.068;8.658;2023-05-31T07:10:33;100335.63;;;24.31;33.08
8637;BME280;4356;49.068;8.658;2023-05-31T07:12:58;100331.81;;;24.32;33.03
8637;BME280;4356;49.068;8.658;2023-05-31T07:15:24;100325.47;;;24.32;33.00
8637;BME280;4356;49.068;8.658;2023-05-31T07:17:49;100326.66;;;24.36;32.66
8637;BME280;4356;49.068;8.658;2023-05-31T07:20:15;100304.16;;;24.22;32.77
8637;BME280;4356;49.068;8.658;2023-05-31T07:22:41;100326.06;;;24.34;32.69
8637;BME280;4356;49.068;8.658;2023-05-31T07:25:06;100331.56;;;24.34;32.38
8637;BME280;4356;49.068;8.658;2023-05-31T07:27:32;100316.72;;;24.35;32.18
8637;BME280;4356;49.068;8.658;2023-05-31T07:29:58;100318.66;;;24.34;32.21
8637;BME280;4356;49.068;8.658;2023-05-31T07:32:23;100312.34;;;24.34;32.22
8637;BME280;4356;49.068;8.658;2023-05-31T07:34:49;100313.19;;;24.34;32.16
8637;BME280;4356;49.068;8.658;2023-05-31T07:37:14;100315.41;;;24.37;31.87
8637;BME280;4356;49.068;8.658;2023-05-31T07:39:40;100308.84;;;24.38;31.93
8637;BME280;4356;49.068;8.658;2023-05-31T07:42:06;100296.75;;;24.39;31.65
8637;BME280;4356;49.068;8.658;2023-05-31T07:44:31;100305.84;;;24.40;31.44
8637;BME280;4356;49.068;8.658;2023-05-31T07:46:57;100304.75;;;24.41;31.63
8637;BME280;4356;49.068;8.658;2023-05-31T07:49:22;100296.03;;;24.44;31.66
8637;BME280;4356;49.068;8.658;2023-05-31T07:51:48;100298.53;;;24.45;31.56
8637;BME280;4356;49.068;8.658;2023-05-31T07:54:14;100291.34;;;24.44;31.14
8637;BME280;4356;49.068;8.658;2023-05-31T07:56:39;100288.84;;;24.43;31.23
8637;BME280;4356;49.068;8.658;2023-05-31T07:59:06;100286.44;;;24.46;31.17
8637;BME280;4356;49.068;8.658;2023-05-31T08:01:32;100282.84;;;24.46;31.17
8637;BME280;4356;49.068;8.658;2023-05-31T08:04:06;100280.94;;;24.46;30.96
8637;BME280;4356;49.068;8.658;2023-05-31T08:06:32;100282.69;;;24.53;30.99
8637;BME280;4356;49.068;8.658;2023-05-31T08:08:58;100283.53;;;24.53;30.97
8637;BME280;4356;49.068;8.658;2023-05-31T08:11:24;100286.00;;;24.55;30.96
8637;BME280;4356;49.068;8.658;2023-05-31T08:13:51;100278.09;;;24.58;30.81
8637;BME280;4356;49.068;8.658;2023-05-31T08:16:17;100270.66;;;24.59;30.79
8637;BME280;4356;49.068;8.658;2023-05-31T08:18:43;100266.00;;;24.59;30.94
8637;BME280;4356;49.068;8.658;2023-05-31T08:21:09;100273.75;;;24.62;30.86
8637;BME280;4356;49.068;8.658;2023-05-31T08:23:34;100268.50;;;24.61;30.94
8637;BME280;4356;49.068;8.658;2023-05-31T08:26:00;100277.91;;;24.65;30.81
8637;BME280;4356;49.068;8.658;2023-05-31T08:28:26;100266.91;;;24.65;30.64
8637;BME280;4356;49.068;8.658;2023-05-31T08:30:52;100271.88;;;24.68;30.80
8637;BME280;4356;49.068;8.658;2023-05-31T08:33:17;100273.34;;;24.70;30.81
8637;BME280;4356;49.068;8.658;2023-05-31T08:35:43;100275.84;;;24.72;30.85
8637;BME280;4356;49.068;8.658;2023-05-31T08:38:09;100266.78;;;24.71;30.60
8637;BME280;4356;49.068;8.658;2023-05-31T08:40:35;100274.25;;;24.76;30.79
8637;BME280;4356;49.068;8.658;2023-05-31T08:43:08;100269.34;;;24.78;30.88
8637;BME280;4356;49.068;8.658;2023-05-31T08:45:42;100266.06;;;24.81;30.74
8637;BME280;4356;49.068;8.658;2023-05-31T08:48:26;100261.41;;;24.81;30.72
8637;BME280;4356;49.068;8.658;2023-05-31T08:50:54;100249.09;;;24.84;30.74
8637;BME280;4356;49.068;8.658;2023-05-31T08:53:24;100253.47;;;24.85;30.44
8637;BME280;4356;49.068;8.658;2023-05-31T08:55:52;100263.72;;;24.89;30.68
8637;BME280;4356;49.068;8.658;2023-05-31T08:58:18;100252.16;;;24.87;30.65
8637;BME280;4356;49.068;8.658;2023-05-31T09:00:44;100246.97;;;24.91;30.81
8637;BME280;4356;49.068;8.658;2023-05-31T09:03:10;100253.38;;;24.96;30.61
8637;BME280;4356;49.068;8.658;2023-05-31T09:05:36;100242.38;;;24.96;30.64
8637;BME280;4356;49.068;8.658;2023-05-31T09:08:02;100247.06;;;25.01;30.50
8637;BME280;4356;49.068;8.658;2023-05-31T09:10:28;100263.88;;;25.04;30.41
8637;BME280;4356;49.068;8.658;2023-05-31T09:12:55;100246.56;;;25.04;30.36
8637;BME280;4356;49.068;8.658;2023-05-31T09:15:23;100244.16;;;25.07;30.48
8637;BME280;4356;49.068;8.658;2023-05-31T09:17:51;100252.72;;;25.11;30.43
8637;BME280;4356;49.068;8.658;2023-05-31T09:20:18;100255.19;;;25.12;30.29
8637;BME280;4356;49.068;8.658;2023-05-31T09:22:47;100251.09;;;25.15;30.42
8637;BME280;4356;49.068;8.658;2023-05-31T09:25:14;100243.69;;;25.15;30.17
8637;BME280;4356;49.068;8.658;2023-05-31T09:27:39;100241.25;;;25.19;30.39
8637;BME280;4356;49.068;8.658;2023-05-31T09:30:08;100242.41;;;25.23;30.39
8637;BME280;4356;49.068;8.658;2023-05-31T09:32:34;100234.16;;;25.23;30.50
8637;BME280;4356;49.068;8.658;2023-05-31T09:35:13;100238.84;;;25.27;30.28
8637;BME280;4356;49.068;8.658;2023-05-31T09:37:48;100217.06;;;25.21;30.26
8637;BME280;4356;49.068;8.658;2023-05-31T09:40:22;100236.44;;;25.31;30.22
8637;BME280;4356;49.068;8.658;2023-05-31T09:42:49;100228.75;;;25.33;30.15
8637;BME280;4356;49.068;8.658;2023-05-31T09:45:15;100222.44;;;25.32;30.00
8637;BME280;4356;49.068;8.658;2023-05-31T09:47:41;100239.59;;;25.39;30.19
8637;BME280;4356;49.068;8.658;2023-05-31T09:50:15;100238.53;;;25.45;29.97
8637;BME280;4356;49.068;8.658;2023-05-31T09:52:43;100236.13;;;25.49;29.90
8637;BME280;4356;49.068;8.658;2023-05-31T09:55:11;100228.41;;;25.51;29.84
8637;BME280;4356;49.068;8.658;2023-05-31T09:57:38;100222.97;;;25.56;29.94
8637;BME280;4356;49.068;8.658;2023-05-31T10:00:11;100226.59;;;25.62;29.85
8637;BME280;4356;49.068;8.658;2023-05-31T10:02:43;100227.50;;;25.67;29.75
8637;BME280;4356;49.068;8.658;2023-05-31T10:05:10;100223.63;;;25.68;29.52
8637;BME280;4356;49.068;8.658;2023-05-31T10:07:55;100221.47;;;25.75;29.56
8637;BME280;4356;49.068;8.658;2023-05-31T10:10:21;100226.22;;;25.80;29.57
8637;BME280;4356;49.068;8.658;2023-05-31T10:12:55;100216.00;;;25.80;29.38
8637;BME280;4356;49.068;8.658;2023-05-31T10:15:24;100221.06;;;25.88;29.35
8637;BME280;4356;49.068;8.658;2023-05-31T10:18:07;100212.78;;;25.88;29.13
8637;BME280;4356;49.068;8.658;2023-05-31T10:20:38;100225.25;;;25.96;29.28
8637;BME280;4356;49.068;8.658;2023-05-31T10:23:25;100221.69;;;26.00;29.26
8637;BME280;4356;49.068;8.658;2023-05-31T10:28:28;100210.41;;;26.02;29.26
8637;BME280;4356;49.068;8.658;2023-05-31T10:30:54;100216.31;;;26.10;28.99
8637;BME280;4356;49.068;8.658;2023-05-31T10:33:22;100219.06;;;26.10;29.20
8637;BME280;4356;49.068;8.658;2023-05-31T10:35:50;100217.19;;;26.16;29.30
8637;BME280;4356;49.068;8.658;2023-05-31T10:38:18;100212.22;;;26.18;29.08
8637;BME280;4356;49.068;8.658;2023-05-31T10:41:15;100215.59;;;26.25;29.28
8637;BME280;4356;49.068;8.658;2023-05-31T10:43:48;100199.28;;;26.23;28.97
8637;BME280;4356;49.068;8.658;2023-05-31T10:46:23;100202.91;;;26.29;29.06
8637;BME280;4356;49.068;8.658;2023-05-31T10:48:57;100204.88;;;26.33;28.82
8637;BME280;4356;49.068;8.658;2023-05-31T10:51:43;100194.69;;;26.34;28.76
8637;BME280;4356;49.068;8.658;2023-05-31T10:54:26;100195.56;;;26.39;28.70
8637;BME280;4356;49.068;8.658;2023-05-31T10:56:56;100202.16;;;26.38;29.30
8637;BME280;4356;49.068;8.658;2023-05-31T10:59:23;100188.38;;;26.38;29.18
8637;BME280;4356;49.068;8.658;2023-05-31T11:01:53;100192.00;;;26.44;29.43
8637;BME280;4356;49.068;8.658;2023-05-31T11:04:23;100189.50;;;26.42;29.23
8637;BME280;4356;49.068;8.658;2023-05-31T11:07:11;100186.19;;;26.45;28.49
8637;BME280;4356;49.068;8.658;2023-05-31T11:09:38;100192.56;;;26.46;28.76
8637;BME280;4356;49.068;8.658;2023-05-31T11:12:05;100180.97;;;26.44;28.97
8637;BME280;4356;49.068;8.658;2023-05-31T11:14:31;100191.44;;;26.47;29.00
8637;BME280;4356;49.068;8.658;2023-05-31T11:22:05;100193.44;;;26.57;28.85
8637;BME280;4356;49.068;8.658;2023-05-31T11:24:52;100179.66;;;26.57;28.34
8637;BME280;4356;49.068;8.658;2023-05-31T11:27:22;100176.88;;;26.57;28.56
8637;BME280;4356;49.068;8.658;2023-05-31T11:35:08;100168.63;;;26.62;28.67
8637;BME280;4356;49.068;8.658;2023-05-31T11:37:38;100168.13;;;26.65;28.21
8637;BME280;4356;49.068;8.658;2023-05-31T11:40:07;100176.72;;;26.68;28.36
8637;BME280;4356;49.068;8.658;2023-05-31T11:42:38;100177.84;;;26.72;27.91
8637;BME280;4356;49.068;8.658;2023-05-31T11:45:06;100160.47;;;26.72;27.92
8637;BME280;4356;49.068;8.658;2023-05-31T11:47:33;100163.22;;;26.77;28.08
8637;BME280;4356;49.068;8.658;2023-05-31T11:50:03;100160.47;;;26.77;27.80
8637;BME280;4356;49.068;8.658;2023-05-31T11:52:29;100161.03;;;26.79;28.20
8637;BME280;4356;49.068;8.658;2023-05-31T11:55:04;100169.88;;;26.86;28.00
8637;BME280;4356;49.068;8.658;2023-05-31T11:57:30;100163.28;;;26.87;27.56
8637;BME280;4356;49.068;8.658;2023-05-31T12:00:03;100161.88;;;26.89;27.44
8637;BME280;4356;49.068;8.658;2023-05-31T12:02:39;100161.63;;;26.91;27.32
8637;BME280;4356;49.068;8.658;2023-05-31T12:05:05;100151.13;;;26.88;27.20
8637;BME280;4356;49.068;8.658;2023-05-31T12:07:31;100158.34;;;26.94;27.45
8637;BME280;4356;49.068;8.658;2023-05-31T12:09:57;100150.06;;;26.94;27.28
8637;BME280;4356;49.068;8.658;2023-05-31T12:12:22;100148.66;;;26.96;27.42
8637;BME280;4356;49.068;8.658;2023-05-31T12:14:52;100146.75;;;26.97;27.18
8637;BME280;4356;49.068;8.658;2023-05-31T12:17:18;100149.50;;;27.02;27.57
8637;BME280;4356;49.068;8.658;2023-05-31T12:19:47;100150.34;;;27.07;27.53
8637;BME280;4356;49.068;8.658;2023-05-31T12:22:12;100145.13;;;27.11;27.70
8637;BME280;4356;49.068;8.658;2023-05-31T12:24:47;100138.78;;;27.15;27.73
8637;BME280;4356;49.068;8.658;2023-05-31T12:27:15;100128.59;;;27.21;27.63
8637;BME280;4356;49.068;8.658;2023-05-31T12:29:41;100127.47;;;27.27;27.60
8637;BME280;4356;49.068;8.658;2023-05-31T12:32:06;100134.69;;;27.33;27.47
8637;BME280;4356;49.068;8.658;2023-05-31T12:34:34;100118.97;;;27.38;27.71
8637;BME280;4356;49.068;8.658;2023-05-31T12:37:10;100126.41;;;27.43;27.56
8637;BME280;4356;49.068;8.658;2023-05-31T12:39:37;100135.00;;;27.47;27.76
8637;BME280;4356;49.068;8.658;2023-05-31T12:42:04;100136.38;;;27.49;27.49
8637;BME280;4356;49.068;8.658;2023-05-31T12:44:34;100129.19;;;27.53;27.79
8637;BME280;4356;49.068;8.658;2023-05-31T12:47:07;100122.56;;;27.59;27.70
8637;BME280;4356;49.068;8.658;2023-05-31T12:49:34;100117.31;;;27.63;28.03
8637;BME280;4356;49.068;8.658;2023-05-31T12:52:09;100117.03;;;27.64;27.82
8637;BME280;4356;49.068;8.658;2023-05-31T12:54:39;100114.56;;;27.68;27.72
8637;BME280;4356;49.068;8.658;2023-05-31T12:57:07;100101.56;;;27.63;27.87
8637;BME280;4356;49.068;8.658;2023-05-31T12:59:36;100112.63;;;27.73;28.00
8637;BME280;4356;49.068;8.658;2023-05-31T13:02:04;100116.19;;;27.79;27.87
8637;BME280;4356;49.068;8.658;2023-05-31T13:04:30;100114.81;;;27.81;27.78
8637;BME280;4356;49.068;8.658;2023-05-31T13:06:56;100108.75;;;27.84;27.98
8637;BME280;4356;49.068;8.658;2023-05-31T13:09:26;100114.81;;;27.86;27.82
8637;BME280;4356;49.068;8.658;2023-05-31T13:11:52;100113.13;;;27.90;27.63
8637;BME280;4356;49.068;8.658;2023-05-31T13:14:19;100102.91;;;27.91;27.78
8637;BME280;4356;49.068;8.658;2023-05-31T13:16:46;100118.13;;;27.98;27.80
8637;BME280;4356;49.068;8.658;2023-05-31T13:19:12;100115.63;;;28.02;27.75
8637;BME280;4356;49.068;8.658;2023-05-31T13:21:38;100097.66;;;27.99;27.79
8637;BME280;4356;49.068;8.658;2023-05-31T13:24:06;100101.81;;;28.07;27.71
8637;BME280;4356;49.068;8.658;2023-05-31T13:26:33;100098.22;;;28.06;27.58
8637;BME280;4356;49.068;8.658;2023-05-31T13:29:00;100098.22;;;28.11;27.52
8637;BME280;4356;49.068;8.658;2023-05-31T13:31:27;100086.88;;;28.13;27.51